CDT,Max TemperatureF,Mean TemperatureF,Min TemperatureF,Max Dew PointF,MeanDew PointF,Min DewpointF,Max Humidity, Mean Humidity, Min Humidity, Max Sea Level PressureIn, Mean Sea Level PressureIn, Min Sea Level PressureIn, Max VisibilityMiles, Mean VisibilityMiles, Min VisibilityMiles, Max Wind SpeedMPH, Mean Wind SpeedMPH, Max Gust SpeedMPH,PrecipitationIn, CloudCover, Events, WindDirDegrees
2012-10-1,80,65,50,48,42,28,82,52,16,29.98,29.93,29.90,10,10,5,22,4,30,0.00,1,,360
2012-10-2,78,60,42,43,35,25,76,44,14,30.00,29.94,29.88,10,10,3,8,3,,0.00,1,,341
2012-10-3,84,62,39,45,30,5,87,45,5,29.95,29.90,29.84,10,9,3,21,5,26,0.00,2,,178
2012-10-4,66,57,48,46,35,27,67,47,26,30.32,30.19,29.93,10,10,10,20,9,28,0.00,2,Rain,338
2012-10-5,55,44,32,32,27,18,75,53,24,30.36,30.31,30.26,10,10,7,13,5,17,0.00,2,Rain,336
2012-10-6,51,40,28,28,23,19,74,51,28,30.38,30.33,30.29,10,10,10,14,4,20,0.00,2,,338
2012-10-7,60,40,21,30,20,10,86,51,14,30.32,30.21,30.08,10,10,10,17,3,21,0.00,1,,234
2012-10-8,73,57,41,34,28,18,66,40,12,30.07,29.95,29.84,10,10,10,23,12,34,0.00,1,,208
2012-10-9,62,48,33,41,31,12,70,44,18,30.16,29.96,29.84,10,10,10,20,10,25,0.00,2,,279
2012-10-10,66,46,26,30,22,14,80,45,13,30.27,30.18,30.09,10,10,10,13,3,17,0.00,1,,221
2012-10-11,73,58,44,36,31,25,61,39,22,30.34,30.12,30.05,10,10,10,23,9,29,0.00,3,,268
2012-10-12,60,50,41,46,26,16,72,38,23,30.38,30.27,30.05,10,10,7,17,10,22,0.00,5,Rain,103
2012-10-13,77,66,55,66,60,46,88,78,65,30.03,29.79,29.56,10,8,3,21,11,34,1.83,7,Rain,183
2012-10-14,69,58,44,57,45,32,82,62,25,30.00,29.83,29.60,10,9,2,24,8,33,1.04,3,Rain,323
2012-10-15,77,58,39,48,40,36,87,57,22,30.01,29.93,29.80,10,10,2,12,3,,0.00,1,,150
2012-10-16,82,68,55,50,46,36,77,51,20,29.79,29.57,29.45,10,10,10,15,8,18,0.00,1,,214
2012-10-17,68,60,51,55,41,19,82,49,25,29.62,29.50,29.38,10,10,7,25,9,36,0.06,3,Rain,279
2012-10-18,55,50,46,43,30,18,82,49,23,29.63,29.57,29.53,10,9,4,25,18,41,0.16,5,Rain,287
2012-10-19,51,48,46,43,40,39,82,74,66,29.84,29.75,29.61,10,10,10,22,13,30,0.04,8,Rain,321
2012-10-20,69,52,35,45,40,32,87,65,31,29.86,29.80,29.72,10,9,0,12,3,16,0.00,2,Fog,132
2012-10-21,84,68,51,64,54,43,77,65,45,29.81,29.77,29.72,10,10,10,20,7,25,0.00,3,,142
2012-10-22,84,73,62,68,63,55,83,71,42,29.82,29.77,29.73,10,8,4,18,6,24,0.07,5,,155
2012-10-23,84,72,59,64,60,54,83,70,48,29.82,29.74,29.66,10,8,2,18,7,25,0.00,6,,189
2012-10-24,82,68,55,66,59,48,88,76,54,29.78,29.74,29.69,10,6,0,18,6,23,0.00,6,Fog-Rain,333
2012-10-25,53,46,39,48,37,27,87,74,61,30.35,30.00,29.64,10,8,3,25,15,37,0.19,8,Rain,346
2012-10-26,48,39,30,30,27,25,81,62,40,30.52,30.45,30.34,10,10,10,20,8,23,0.00,5,,343
2012-10-27,48,36,24,30,25,19,86,66,40,30.43,30.36,30.28,10,10,10,5,0,,0.00,2,,351
2012-10-28,53,42,32,30,29,27,81,59,35,30.36,30.30,30.25,10,8,3,10,3,16,0.00,3,,151
2012-10-29,60,51,41,32,27,23,65,45,23,30.29,30.22,30.14,10,10,10,22,10,28,0.00,3,,147
2012-10-30,57,47,35,30,27,18,75,53,21,30.15,30.08,30.04,10,10,5,10,5,16,0.00,2,,88
2012-10-31,62,45,28,36,29,23,86,62,25,30.09,30.05,30.00,10,10,7,6,0,,0.00,1,,264